Weather at Norman Y. Mineta San Jose International Airport

Public forecast

Using degrees Fahrenheit for public forecast. Weather courtesy of forecast.io.

Current aviation weather report (METAR) for Norman Y. Mineta San Jose International Airport

2024/02/24 15:53 (retrieved 34 minutes ago)

KSJC 241553Z 11003KT 10SM FEW060 10/06 A3006 RMK AO2 SLP177 T01000061

Aviation forecast (TAF) for Norman Y. Mineta San Jose International Airport

2024/02/24 12:22 (retrieved 4 hours ago)

TAF KSJC 241120Z 2412/2512 12002KT P6SM OVC250 FM241700 32005KT P6SM SCT250 FM250400 15004KT P6SM FEW250